ADDS METAR Data INFO
IDs: Format: Raw Decoded Include TAF

Data at: 0200 UTC 18 Oct 2017

KADS 180147Z 10007KT 10SM SKC 19/05 A3015
KADS 180047Z 16005KT 11SM SKC 19/05 A3015
KADS 172347Z 15006KT 11SM SKC 20/04 A3015
KADS 172247Z 12006KT 10SM SKC 23/04 A3015
KADS 172149Z 17003KT 11SM SKC 23/03 A3017
KADS 172047Z 11005KT 11SM SKC 23/04 A3018
KADS 171947Z 17003KT 10SM SKC 22/04 A3022
KADS 171852Z 15004KT 10SM SKC 22/04 A3024
KADS 171748Z 12007KT 10SM SKC 20/04 A3028
KADS 171647Z 15005KT 10SM SKC 19/04 A3031
KADS 171546Z 11010KT 10SM SKC 18/04 A3033
KADS 171458Z 13008KT 10SM SKC 17/05 A3033
KADS 171347Z 13008KT 10SM SKC 14/05 A3032
KADS 171247Z 12008KT 10SM SKC 13/05 A3030
KADS 171153Z 10006KT 10SM SKC 13/05 A3029
KADS 171053Z AUTO 10006KT 10SM SKC 13/05 A3028
KADS 171035Z AUTO 11004KT 10SM CLR 13/05 A3029 RMK AO2 T01250053
KADS 171015Z AUTO 00000KT 10SM CLR 12/05 A3029 RMK AO2 T01150050
KADS 170955Z AUTO 00000KT 10SM CLR 13/05 A3029 RMK AO2 T01250048
KADS 170935Z AUTO 00000KT 10SM CLR 13/05 A3028 RMK AO2 T01270050
KADS 170915Z AUTO 00000KT 10SM CLR 12/06 A3029 RMK AO2 T01180056
KADS 170855Z AUTO 00000KT 10SM CLR 12/06 A3029 RMK AO2 T01150060
KADS 170835Z AUTO 00000KT 10SM CLR 13/06 A3030 RMK AO2 T01260057
KADS 170815Z AUTO 00000KT 10SM CLR 13/06 A3030 RMK AO2 T01270056
KADS 170755Z AUTO 10003KT 10SM CLR 14/06 A3030 RMK AO2 T01360055
KADS 170735Z AUTO 10004KT 10SM CLR 14/06 A3030 RMK AO2 T01370055
KADS 170715Z AUTO 10004KT 10SM CLR 14/05 A3030 RMK AO2 T01390052
KADS 170655Z AUTO 11005KT 10SM CLR 14/05 A3030 RMK AO2 T01400051
KADS 170635Z AUTO 10004KT 10SM CLR 14/05 A3030 RMK AO2 T01400052
KADS 170615Z AUTO 09003KT 10SM CLR 14/06 A3030 RMK AO2 T01400055
KADS 170555Z AUTO 09003KT 10SM CLR 15/06 A3030 RMK AO2 T01450056 10202 20145 402240095
KADS 170535Z AUTO 09003KT 10SM CLR 15/05 A3029 RMK AO2 T01450053
KADS 170515Z AUTO 09004KT 10SM CLR 15/05 A3030 RMK AO2 T01470048
KADS 170455Z AUTO 00000KT 10SM CLR 15/04 A3030 RMK AO2 T01500044
KADS 170435Z AUTO 00000KT 10SM CLR 15/04 A3030 RMK AO2 T01540040
KADS 170415Z AUTO 07003KT 10SM CLR 16/04 A3031 RMK AO2 T01570038
KADS 170355Z AUTO 00000KT 10SM CLR 16/04 A3030 RMK AO2 T01590038
KADS 170335Z AUTO 00000KT 10SM CLR 16/04 A3030 RMK AO2 T01590040
KADS 170315Z AUTO 06004KT 10SM CLR 16/04 A3030 RMK AO2 T01600040
KADS 170047Z 00000KT 13SM SKC 20/02 A3028
KADS 162347Z 06004KT 13SM SKC 21/01 A3027
KADS 162250Z 07004KT 13SM SKC 22/01 A3027
KADS 162147Z 03007KT 13SM SKC 22/02 A3028
KADS 162053Z 36003KT 13SM SKC 22/02 A3029
KADS 161947Z 04009KT 13SM SKC 22/03 A3031
KADS 161847Z 35007KT 13SM SKC 21/03 A3035
KADS 161753Z 03007KT 13SM SKC 19/04 A3039
KADS 161657Z 05008KT 13SM SKC 17/05 A3042
KADS 161547Z 05009KT 13SM SKC 17/05 A3044
KADS 161447Z 06009G14KT 13SM SKC 15/04 A3043